Time;durP1;ratioP1;P1;durP2;ratioP2;P2;SDS_P1;SDS_P2;PMS_P1;PMS_P2;Temp;Humidity;BMP_temperature;BMP_pressure;BME280_temperature;BME280_humidity;BME280_pressure;Samples;Min_cycle;Max_cycle;Signal;HPM_P1;HPM_P2
2024/04/04 00:00:20;;;;;;;7.17;6.67;;;;;;;10.73;100.00;144447.22;5130497;27;20323;-51
2024/04/04 00:02:45;;;;;;;7.47;6.53;;;;;;;10.70;100.00;144442.41;5130912;27;20204;-51
2024/04/04 00:05:13;;;;;;;6.63;6.23;;;;;;;10.73;99.97;144448.44;5130436;27;20201;-51
2024/04/04 00:07:38;;;;;;;6.80;6.40;;;;;;;10.77;99.57;144458.09;5130342;27;20295;-50
2024/04/04 00:10:05;;;;;;;6.90;6.50;;;;;;;10.79;99.63;144462.97;5129725;27;20315;-51
2024/04/04 00:12:32;;;;;;;8.33;7.30;;;;;;;10.84;99.26;144473.84;5130610;27;20201;-52
2024/04/04 00:14:58;;;;;;;6.53;6.13;;;;;;;10.86;99.42;144478.69;5130048;27;20779;-50
2024/04/04 00:17:24;;;;;;;6.90;6.50;;;;;;;10.83;99.26;144472.63;5130429;27;20207;-50
2024/04/04 00:19:50;;;;;;;6.93;6.50;;;;;;;10.84;99.18;144475.06;5130240;27;20224;-51
2024/04/04 00:22:16;;;;;;;6.53;6.13;;;;;;;10.86;99.03;144478.69;5130673;27;20282;-51
2024/04/04 00:24:42;;;;;;;7.10;6.50;;;;;;;10.86;98.82;144478.69;5130131;27;20193;-51
2024/04/04 00:27:08;;;;;;;8.33;7.10;;;;;;;10.83;98.74;144471.41;5130043;27;20208;-51
2024/04/04 00:29:35;;;;;;;7.27;6.77;;;;;;;10.77;98.86;144458.09;5129790;27;20197;-51
2024/04/04 00:32:01;;;;;;;7.07;6.67;;;;;;;10.71;99.01;144443.56;5130295;27;20260;-51
2024/04/04 00:34:27;;;;;;;7.23;6.80;;;;;;;10.64;99.25;144427.88;5130119;27;20205;-53
2024/04/04 00:36:53;;;;;;;7.20;6.70;;;;;;;10.63;99.41;144425.44;5130105;27;20452;-53
2024/04/04 00:39:19;;;;;;;7.13;6.53;;;;;;;10.54;99.76;144403.69;5129940;27;20768;-51
2024/04/04 00:41:44;;;;;;;6.80;6.30;;;;;;;10.54;99.82;144403.69;5130274;27;20204;-51
2024/04/04 00:44:11;;;;;;;7.20;6.70;;;;;;;10.50;99.86;144392.75;5129869;27;20250;-51
2024/04/04 00:46:38;;;;;;;7.37;6.70;;;;;;;10.45;100.00;144380.66;5130025;27;20212;-52
2024/04/04 00:49:05;;;;;;;7.23;6.60;;;;;;;10.44;100.00;144379.44;5129861;27;20196;-50
2024/04/04 00:51:30;;;;;;;7.00;6.30;;;;;;;10.47;100.00;144386.72;5129817;27;20697;-51
2024/04/04 00:53:57;;;;;;;6.73;6.23;;;;;;;10.46;99.95;144383.09;5129564;27;20295;-50
2024/04/04 00:56:23;;;;;;;7.00;6.50;;;;;;;10.42;100.00;144373.41;5130040;27;20395;-51
2024/04/04 00:58:49;;;;;;;7.23;6.70;;;;;;;10.45;100.00;144380.66;5129747;27;20245;-51
2024/04/04 01:01:15;;;;;;;7.00;6.33;;;;;;;10.47;100.00;144385.50;5129890;27;20446;-51
2024/04/04 01:03:43;;;;;;;6.73;6.17;;;;;;;10.44;99.56;144378.22;5129891;27;20362;-51
2024/04/04 01:06:08;;;;;;;6.73;6.23;;;;;;;10.38;99.73;144363.75;5129568;27;20289;-51
2024/04/04 01:08:35;;;;;;;6.73;6.13;;;;;;;10.33;100.00;144352.81;5129587;27;20251;-51
2024/04/04 01:11:00;;;;;;;7.27;6.13;;;;;;;10.24;100.00;144329.88;5129701;27;20200;-51
2024/04/04 01:13:26;;;;;;;6.63;6.13;;;;;;;10.15;100.00;144309.28;5129485;27;20269;-51
2024/04/04 01:15:52;;;;;;;6.57;6.07;;;;;;;10.07;100.00;144291.09;5129406;27;20396;-51
2024/04/04 01:18:20;;;;;;;6.97;6.43;;;;;;;10.08;100.00;144293.50;5129502;27;20204;-50
2024/04/04 01:20:46;;;;;;;7.20;6.53;;;;;;;9.96;100.00;144263.28;5129783;27;20221;-50
2024/04/04 01:23:13;;;;;;;7.17;6.60;;;;;;;9.97;100.00;144265.72;5133389;27;20230;-52
2024/04/04 01:25:39;;;;;;;6.70;6.20;;;;;;;9.91;100.00;144251.19;5133993;27;20201;-51
2024/04/04 01:28:06;;;;;;;6.70;6.30;;;;;;;9.94;100.00;144259.69;5133765;27;20573;-51
2024/04/04 01:30:31;;;;;;;6.37;5.87;;;;;;;9.98;100.00;144268.09;5133757;27;20197;-51
2024/04/04 01:32:58;;;;;;;7.00;6.40;;;;;;;9.94;100.00;144259.69;5133578;27;20265;-51
2024/04/04 01:35:23;;;;;;;6.37;6.00;;;;;;;9.94;100.00;144258.44;5133811;27;20339;-52
2024/04/04 01:37:49;;;;;;;6.80;6.30;;;;;;;9.98;100.00;144269.31;5133397;27;20248;-50
2024/04/04 01:40:15;;;;;;;6.17;5.73;;;;;;;10.00;100.00;144274.16;5133496;27;20232;-52
2024/04/04 01:42:42;;;;;;;6.47;6.07;;;;;;;10.13;100.00;144303.25;5133461;27;20736;-51
2024/04/04 01:45:08;;;;;;;6.83;6.43;;;;;;;10.12;100.00;144301.97;5134009;27;20265;-53
2024/04/04 01:47:34;;;;;;;7.00;6.50;;;;;;;10.20;100.00;144320.16;5133608;27;20668;-53
2024/04/04 01:50:00;;;;;;;6.90;6.40;;;;;;;10.23;100.00;144327.44;5133541;27;20248;-51
2024/04/04 01:52:26;;;;;;;6.63;6.13;;;;;;;10.29;100.00;144341.94;5133451;27;20617;-50
2024/04/04 01:54:51;;;;;;;6.53;6.03;;;;;;;10.37;100.00;144362.53;5132901;27;20212;-51
2024/04/04 01:57:18;;;;;;;7.13;6.50;;;;;;;10.35;100.00;144356.47;5133325;27;20188;-52
2024/04/04 01:59:45;;;;;;;6.30;5.90;;;;;;;10.37;100.00;144361.31;5133212;27;20269;-52
2024/04/04 02:02:11;;;;;;;6.23;5.90;;;;;;;10.50;100.00;144392.75;5132904;27;20208;-51
2024/04/04 02:04:36;;;;;;;6.90;6.40;;;;;;;10.46;100.00;144384.31;5133199;27;20286;-51
2024/04/04 02:07:03;;;;;;;7.40;6.80;;;;;;;10.46;100.00;144383.09;5133017;27;20736;-50
2024/04/04 02:09:29;;;;;;;6.53;6.13;;;;;;;10.45;100.00;144380.66;5132876;27;20225;-51
2024/04/04 02:11:55;;;;;;;6.87;6.27;;;;;;;10.47;100.00;144385.50;5132892;27;20204;-52
2024/04/04 02:14:20;;;;;;;7.00;6.50;;;;;;;10.51;100.00;144395.19;5132308;27;20236;-52
2024/04/04 02:16:48;;;;;;;7.03;6.57;;;;;;;10.42;100.00;144373.41;5131906;27;20208;-52
2024/04/04 02:19:13;;;;;;;6.70;6.20;;;;;;;10.48;100.00;144387.94;5131600;27;20277;-52
2024/04/04 02:21:40;;;;;;;6.90;6.40;;;;;;;10.46;100.00;144384.31;5131447;27;20616;-51
2024/04/04 02:24:05;;;;;;;6.90;6.30;;;;;;;10.48;100.00;144389.16;5131480;27;20265;-51
2024/04/04 02:26:33;;;;;;;7.30;6.80;;;;;;;10.41;100.00;144371.00;5131549;27;20200;-51
2024/04/04 02:28:59;;;;;;;6.97;6.37;;;;;;;10.22;100.00;144325.03;5131414;27;20204;-51
2024/04/04 02:31:25;;;;;;;6.83;6.30;;;;;;;10.27;100.00;144337.13;5131258;27;20663;-52
2024/04/04 02:33:52;;;;;;;7.00;6.47;;;;;;;10.26;100.00;144334.69;5130741;27;20615;-51
2024/04/04 02:36:18;;;;;;;6.50;6.07;;;;;;;10.25;100.00;144332.25;5131249;27;20682;-51
2024/04/04 02:38:44;;;;;;;7.20;6.60;;;;;;;10.22;100.00;144325.03;5131347;27;20211;-51
2024/04/04 02:41:09;;;;;;;7.07;6.47;;;;;;;10.19;100.00;144317.78;5131181;27;20224;-51
2024/04/04 02:43:35;;;;;;;6.70;6.17;;;;;;;10.18;100.00;144315.34;5131368;27;20201;-51
2024/04/04 02:46:02;;;;;;;7.13;6.63;;;;;;;10.16;100.00;144310.50;5131246;27;20614;-52
2024/04/04 02:48:28;;;;;;;5.67;5.27;;;;;;;10.07;100.00;144289.88;5131362;27;20196;-51
2024/04/04 02:50:55;;;;;;;7.10;6.70;;;;;;;10.09;100.00;144295.94;5131046;27;20241;-51
2024/04/04 02:53:22;;;;;;;6.60;6.20;;;;;;;10.06;100.00;144288.69;5130901;27;20346;-50
2024/04/04 02:55:55;;;;;;;6.80;6.10;;;;;;;10.14;100.00;144306.84;5131113;27;20204;-51
2024/04/04 02:58:21;;;;;;;6.57;6.10;;;;;;;10.23;100.00;144327.44;5131102;27;20655;-51
2024/04/04 03:00:47;;;;;;;7.20;6.60;;;;;;;10.23;100.00;144328.66;5130871;27;20812;-51
2024/04/04 03:03:13;;;;;;;7.10;6.50;;;;;;;10.22;100.00;144326.22;5130859;27;20204;-51
2024/04/04 03:05:38;;;;;;;7.00;6.40;;;;;;;10.26;100.00;144335.91;5131132;27;20204;-51
2024/04/04 03:08:07;;;;;;;6.00;5.60;;;;;;;10.34;100.00;144355.25;5130785;27;20197;-51
2024/04/04 03:10:33;;;;;;;6.30;6.00;;;;;;;10.38;100.00;144363.75;5130586;27;20303;-51
2024/04/04 03:13:00;;;;;;;6.33;6.03;;;;;;;10.37;100.00;144361.31;5130851;27;20203;-51
2024/04/04 03:15:25;;;;;;;6.97;6.47;;;;;;;10.38;100.00;144363.75;5095970;27;1003501;-51
2024/04/04 03:17:51;;;;;;;7.67;7.07;;;;;;;10.40;100.00;144369.78;5131402;27;20201;-50
2024/04/04 03:20:17;;;;;;;7.00;6.50;;;;;;;10.37;100.00;144362.53;5131659;27;20220;-52
2024/04/04 03:22:43;;;;;;;7.10;6.63;;;;;;;10.30;100.00;144345.56;5131579;27;20253;-51
2024/04/04 03:25:10;;;;;;;6.33;6.00;;;;;;;10.38;100.00;144363.75;5131514;27;20239;-51
2024/04/04 03:27:37;;;;;;;6.67;6.37;;;;;;;10.35;100.00;144357.69;5131475;27;20285;-52
2024/04/04 03:30:02;;;;;;;6.93;6.47;;;;;;;10.32;100.00;144349.22;5131442;27;20200;-52
2024/04/04 03:32:29;;;;;;;6.90;6.50;;;;;;;10.36;100.00;144358.88;5131666;27;20669;-51
2024/04/04 03:34:54;;;;;;;7.03;6.60;;;;;;;10.33;100.00;144352.81;5131494;27;20204;-52
2024/04/04 03:37:20;;;;;;;6.50;6.10;;;;;;;10.29;100.00;144343.16;5130930;27;20253;-52
2024/04/04 03:39:48;;;;;;;7.10;6.40;;;;;;;10.22;100.00;144325.03;5131239;27;20269;-52
2024/04/04 03:42:15;;;;;;;6.77;6.30;;;;;;;10.09;100.00;144294.72;5131316;27;20212;-53
2024/04/04 03:44:42;;;;;;;6.80;6.30;;;;;;;10.04;100.00;144283.84;5130321;27;20245;-52
2024/04/04 03:47:07;;;;;;;6.77;6.27;;;;;;;10.04;100.00;144283.84;5131074;27;20299;-52
2024/04/04 03:49:34;;;;;;;6.60;6.10;;;;;;;10.06;100.00;144288.69;5130697;27;20291;-53
2024/04/04 03:51:59;;;;;;;6.90;6.40;;;;;;;9.99;100.00;144270.53;5130902;27;20201;-51
2024/04/04 03:54:25;;;;;;;6.50;6.00;;;;;;;9.94;100.00;144258.44;5130782;27;20249;-52
2024/04/04 03:56:52;;;;;;;6.80;6.40;;;;;;;9.79;100.00;144223.38;5130841;27;20542;-52
2024/04/04 03:59:19;;;;;;;6.60;6.20;;;;;;;9.79;100.00;144222.16;5130702;27;20679;-50
2024/04/04 04:01:45;;;;;;;6.43;5.83;;;;;;;9.82;100.00;144230.63;5130740;27;20671;-51
2024/04/04 04:04:11;;;;;;;6.97;6.37;;;;;;;9.78;100.00;144220.94;5130433;27;20253;-51
2024/04/04 04:06:36;;;;;;;6.33;5.83;;;;;;;9.81;100.00;144228.19;5130710;27;20269;-52
2024/04/04 04:09:03;;;;;;;6.53;6.03;;;;;;;9.83;100.00;144233.06;5130516;27;20709;-52
2024/04/04 04:11:28;;;;;;;6.73;6.23;;;;;;;9.82;100.00;144229.41;5130644;27;20207;-52
2024/04/04 04:13:55;;;;;;;6.27;5.87;;;;;;;9.84;100.00;144234.22;5130403;27;20249;-53
2024/04/04 04:16:22;;;;;;;6.33;5.97;;;;;;;9.88;100.00;144243.94;5130706;27;20200;-51
2024/04/04 04:18:50;;;;;;;6.20;5.90;;;;;;;9.88;100.00;144243.94;5130711;27;20281;-52
2024/04/04 04:21:20;;;;;;;6.10;5.60;;;;;;;9.77;100.00;144218.53;5130443;27;20259;-52
2024/04/04 04:23:47;;;;;;;6.60;5.87;;;;;;;9.73;100.00;144208.84;5130541;27;20252;-51
2024/04/04 04:26:13;;;;;;;6.00;5.70;;;;;;;9.73;100.00;144208.84;5130188;27;20438;-51
2024/04/04 04:28:39;;;;;;;6.57;6.07;;;;;;;9.73;100.00;144207.63;5130119;27;20200;-51
2024/04/04 04:31:20;;;;;;;8.47;5.87;;;;;;;9.60;100.00;144176.19;5130129;27;20237;-51
2024/04/04 04:33:48;;;;;;;6.80;6.30;;;;;;;9.68;100.00;144196.75;5130269;27;20192;-51
2024/04/04 04:36:13;;;;;;;6.40;5.80;;;;;;;9.68;100.00;144196.75;5130187;27;20617;-51
2024/04/04 04:38:40;;;;;;;6.60;6.10;;;;;;;9.60;100.00;144177.41;5129986;27;20253;-51
2024/04/04 04:41:05;;;;;;;6.33;5.83;;;;;;;9.62;100.00;144181.06;5129894;27;20228;-53
2024/04/04 04:43:32;;;;;;;6.07;5.73;;;;;;;9.56;100.00;144167.75;5130008;27;20196;-52
2024/04/04 04:45:57;;;;;;;6.73;6.10;;;;;;;9.47;100.00;144146.00;5129929;27;20249;-52
2024/04/04 04:48:23;;;;;;;6.80;6.30;;;;;;;9.48;100.00;144148.41;5129995;27;20200;-50
2024/04/04 04:50:50;;;;;;;6.03;5.70;;;;;;;9.42;100.00;144133.91;5129740;27;20207;-50
2024/04/04 04:53:16;;;;;;;6.60;6.00;;;;;;;9.44;100.00;144139.94;5129764;27;20200;-51
2024/04/04 04:55:46;;;;;;;6.33;5.90;;;;;;;9.46;100.00;144143.56;5129675;27;20660;-50
2024/04/04 04:58:13;;;;;;;5.80;5.30;;;;;;;9.47;100.00;144147.19;5129598;27;20203;-52
2024/04/04 05:00:38;;;;;;;6.47;5.87;;;;;;;9.47;100.00;144147.19;5129692;27;20277;-52
2024/04/04 05:03:05;;;;;;;6.93;6.13;;;;;;;9.55;100.00;144165.31;5129545;27;20663;-51
2024/04/04 05:05:30;;;;;;;6.70;6.23;;;;;;;9.60;100.00;144176.19;5129666;27;20571;-50
2024/04/04 05:07:58;;;;;;;5.83;5.33;;;;;;;9.66;100.00;144190.72;5129607;28;20197;-50
2024/04/04 05:10:23;;;;;;;6.00;5.60;;;;;;;9.65;100.00;144188.28;5129529;27;20633;-51
2024/04/04 05:12:50;;;;;;;6.63;6.23;;;;;;;9.62;100.00;144182.25;5129392;27;20208;-50
2024/04/04 05:15:15;;;;;;;6.67;6.17;;;;;;;9.61;100.00;144179.84;5129524;27;20780;-51
2024/04/04 05:17:42;;;;;;;6.27;5.87;;;;;;;9.72;100.00;144205.22;5129457;27;20212;-51
2024/04/04 05:20:08;;;;;;;6.50;6.00;;;;;;;9.68;100.00;144196.75;5129613;27;20228;-50
2024/04/04 05:22:35;;;;;;;6.13;5.73;;;;;;;9.69;100.00;144197.97;5129639;27;20579;-50
2024/04/04 05:25:01;;;;;;;5.83;5.33;;;;;;;9.77;100.00;144217.31;5129521;27;20208;-51
2024/04/04 05:27:28;;;;;;;5.97;5.57;;;;;;;9.87;100.00;144242.72;5129574;27;20323;-51
2024/04/04 05:29:53;;;;;;;6.80;6.30;;;;;;;9.96;100.00;144263.28;5129331;27;20196;-51
2024/04/04 05:32:20;;;;;;;6.70;6.10;;;;;;;10.04;100.00;144283.84;5129382;27;20606;-51
2024/04/04 05:34:47;;;;;;;6.67;6.17;;;;;;;10.17;100.00;144314.13;5129519;27;20208;-50
2024/04/04 05:37:14;;;;;;;6.50;6.10;;;;;;;10.32;100.00;144349.22;5129212;27;20227;-50
2024/04/04 05:39:40;;;;;;;6.83;6.23;;;;;;;10.41;100.00;144372.19;5129269;27;20205;-50
2024/04/04 05:42:07;;;;;;;7.03;6.40;;;;;;;10.54;100.00;144403.69;5129199;27;20675;-51
2024/04/04 05:44:33;;;;;;;7.30;6.80;;;;;;;10.63;99.77;144425.44;5129302;27;20269;-51
2024/04/04 05:46:59;;;;;;;6.53;6.07;;;;;;;10.71;98.65;144444.78;5129342;27;20659;-51
2024/04/04 05:49:24;;;;;;;6.80;6.40;;;;;;;10.80;99.23;144464.16;5129259;27;20261;-50
2024/04/04 05:51:51;;;;;;;7.10;6.63;;;;;;;11.00;97.32;144512.59;5129066;27;20201;-51
2024/04/04 05:54:17;;;;;;;7.60;6.80;;;;;;;11.24;95.60;144570.69;5129187;27;20209;-51
2024/04/04 05:56:43;;;;;;;7.73;7.13;;;;;;;11.26;95.08;144575.53;5129306;27;20563;-51
2024/04/04 05:59:10;;;;;;;7.47;6.93;;;;;;;11.22;95.39;144565.88;5128954;27;20302;-51
2024/04/04 06:01:36;;;;;;;7.00;6.50;;;;;;;11.24;95.00;144570.69;5129116;27;20224;-52
2024/04/04 06:04:01;;;;;;;7.70;7.00;;;;;;;11.43;94.04;144616.72;5129162;27;20241;-51
2024/04/04 06:06:28;;;;;;;7.33;6.80;;;;;;;11.55;93.72;144644.56;5129227;27;20212;-50
2024/04/04 06:08:55;;;;;;;7.50;6.97;;;;;;;11.78;91.89;144701.53;5132009;27;20224;-51
2024/04/04 06:11:21;;;;;;;8.07;7.47;;;;;;;11.95;90.86;144741.50;5132843;27;20244;-51
2024/04/04 06:13:47;;;;;;;7.87;7.37;;;;;;;12.07;89.61;144770.59;5132695;27;20589;-50
2024/04/04 06:16:14;;;;;;;8.73;7.83;;;;;;;12.24;88.48;144810.59;5132454;27;20204;-51
2024/04/04 06:18:40;;;;;;;8.80;8.00;;;;;;;12.24;88.90;144811.75;5132652;27;20273;-51
2024/04/04 06:21:06;;;;;;;8.40;7.70;;;;;;;12.35;88.36;144838.44;5132490;27;20711;-50
2024/04/04 06:23:32;;;;;;;8.33;7.60;;;;;;;12.55;87.87;144885.69;5132509;27;20197;-51
2024/04/04 06:25:58;;;;;;;8.37;7.70;;;;;;;12.69;86.25;144918.41;5132471;27;20254;-51
2024/04/04 06:28:23;;;;;;;9.00;7.77;;;;;;;12.80;84.92;144946.31;5132409;27;20233;-51
2024/04/04 06:30:50;;;;;;;8.60;7.73;;;;;;;13.02;84.24;144998.44;5132190;27;20192;-51
2024/04/04 06:33:16;;;;;;;9.53;8.27;;;;;;;13.51;82.38;145117.34;5132424;27;20246;-50
2024/04/04 06:35:43;;;;;;;8.40;7.80;;;;;;;13.80;79.86;145185.28;5132603;27;20467;-51
2024/04/04 06:38:08;;;;;;;9.27;8.37;;;;;;;14.03;78.87;145242.28;5132016;27;20257;-52
2024/04/04 06:40:38;;;;;;;9.70;8.90;;;;;;;13.86;78.07;145199.81;5132314;27;20633;-50
2024/04/04 06:43:04;;;;;;;9.00;8.30;;;;;;;13.63;78.70;145146.41;5132213;27;20205;-51
2024/04/04 06:45:30;;;;;;;9.90;9.00;;;;;;;13.47;79.39;145107.59;5132020;27;20724;-52
2024/04/04 06:47:57;;;;;;;10.00;9.03;;;;;;;13.77;78.23;145178.00;5131990;27;20671;-51
2024/04/04 06:50:25;;;;;;;9.60;8.60;;;;;;;13.74;78.40;145170.72;5132066;27;20204;-51
2024/04/04 06:52:51;;;;;;;9.97;9.00;;;;;;;13.74;78.38;145171.94;5131654;27;20201;-52
2024/04/04 06:55:17;;;;;;;10.33;9.23;;;;;;;13.80;78.57;145185.28;5132079;27;20257;-51
2024/04/04 06:57:43;;;;;;;9.50;8.80;;;;;;;14.46;77.13;145344.25;5131959;27;20268;-52
2024/04/04 07:00:11;;;;;;;9.30;8.57;;;;;;;15.74;72.58;145652.75;5131681;27;20212;-51
2024/04/04 07:02:37;;;;;;;10.17;8.80;;;;;;;16.04;69.78;145725.66;5131843;27;20702;-51
2024/04/04 07:05:04;;;;;;;10.37;9.40;;;;;;;15.85;69.62;145680.72;5131706;27;20196;-51
2024/04/04 07:07:30;;;;;;;10.20;9.37;;;;;;;16.70;67.41;145883.75;5131559;27;20692;-52
2024/04/04 07:09:57;;;;;;;10.93;10.03;;;;;;;17.53;64.55;146085.72;5131496;27;20225;-51
2024/04/04 07:12:22;;;;;;;10.80;9.80;;;;;;;18.28;61.44;146267.03;5131641;27;20205;-51
2024/04/04 07:14:49;;;;;;;10.40;9.60;;;;;;;18.27;61.56;146264.63;5131428;27;20293;-50
2024/04/04 07:17:14;;;;;;;10.17;9.17;;;;;;;17.88;61.89;146169.66;5131534;27;20209;-51
2024/04/04 07:19:40;;;;;;;10.07;9.23;;;;;;;17.01;62.69;145959.16;5130305;27;20249;-51
2024/04/04 07:22:06;;;;;;;9.80;8.90;;;;;;;16.93;64.10;145940.91;5131260;27;20712;-51
2024/04/04 07:24:33;;;;;;;10.67;9.77;;;;;;;16.06;64.76;145729.34;5131422;27;20205;-52
2024/04/04 07:26:59;;;;;;;9.73;8.83;;;;;;;15.92;65.93;145697.75;5131371;27;20691;-51
2024/04/04 07:29:25;;;;;;;10.37;9.47;;;;;;;15.20;68.12;145522.75;5131416;27;20230;-51
2024/04/04 07:31:50;;;;;;;10.10;9.20;;;;;;;14.75;70.79;145415.88;5131108;27;20205;-50
2024/04/04 07:34:17;;;;;;;10.10;9.10;;;;;;;14.42;71.81;145335.78;5131308;27;20259;-51
2024/04/04 07:36:42;;;;;;;9.63;8.80;;;;;;;14.11;74.13;145261.72;5131061;27;20197;-51
2024/04/04 07:39:10;;;;;;;10.27;8.93;;;;;;;14.08;73.76;145254.41;5131020;27;20612;-51
2024/04/04 07:41:36;;;;;;;10.27;9.23;;;;;;;13.88;74.62;145205.88;5131028;27;20303;-51
2024/04/04 07:44:03;;;;;;;10.17;9.20;;;;;;;13.69;76.04;145158.59;5131103;27;20200;-51
2024/04/04 07:46:29;;;;;;;10.70;9.30;;;;;;;13.62;77.99;145144.03;5131004;27;20297;-50
2024/04/04 07:48:56;;;;;;;11.23;8.67;;;;;;;13.53;79.13;145120.94;5130808;27;20298;-50
2024/04/04 07:51:22;;;;;;;10.23;9.43;;;;;;;13.33;79.51;145072.47;5131268;27;20197;-51
2024/04/04 07:53:49;;;;;;;9.27;8.43;;;;;;;13.17;81.83;145034.84;5131015;27;20207;-51
2024/04/04 07:56:16;;;;;;;10.87;8.97;;;;;;;13.07;81.96;145010.59;5130909;27;20200;-50
2024/04/04 07:58:46;;;;;;;9.43;8.50;;;;;;;13.11;81.61;145020.31;5130763;27;20720;-50
2024/04/04 08:01:11;;;;;;;9.77;8.87;;;;;;;13.09;82.27;145014.28;5130469;27;20216;-50
2024/04/04 08:03:38;;;;;;;9.30;8.10;;;;;;;13.15;81.75;145028.78;5130694;27;20256;-50
2024/04/04 08:06:04;;;;;;;9.90;8.90;;;;;;;13.20;81.16;145040.91;5130549;27;20196;-52
2024/04/04 08:08:30;;;;;;;9.37;8.47;;;;;;;13.30;81.93;145065.19;5130377;27;20204;-51
2024/04/04 08:10:56;;;;;;;9.33;8.33;;;;;;;13.36;80.74;145080.94;5130343;27;20217;-51
2024/04/04 08:13:22;;;;;;;13.00;8.00;;;;;;;13.33;81.52;145073.66;5130325;27;20241;-50
2024/04/04 08:15:50;;;;;;;13.83;9.43;;;;;;;13.41;80.48;145093.09;5130733;27;20257;-50
2024/04/04 08:18:16;;;;;;;10.43;8.63;;;;;;;13.36;82.24;145080.94;5130622;27;20283;-50
2024/04/04 08:20:44;;;;;;;9.73;8.63;;;;;;;13.29;81.69;145062.75;5130327;27;20352;-51
2024/04/04 08:23:10;;;;;;;9.30;8.40;;;;;;;13.19;82.26;145039.72;5130142;27;20845;-51
2024/04/04 08:25:36;;;;;;;9.47;8.43;;;;;;;13.11;82.92;145019.09;5130209;27;20703;-52
2024/04/04 08:28:04;;;;;;;10.57;8.87;;;;;;;13.10;82.64;145017.88;5130753;27;20200;-51
2024/04/04 08:30:29;;;;;;;8.63;7.73;;;;;;;12.92;84.70;144975.38;5129958;27;20205;-51
2024/04/04 08:32:57;;;;;;;9.27;8.27;;;;;;;12.95;84.76;144981.50;5130267;27;20196;-50
2024/04/04 08:35:22;;;;;;;8.90;8.20;;;;;;;12.85;84.75;144958.44;5132271;27;20261;-51
2024/04/04 08:37:49;;;;;;;8.70;8.00;;;;;;;12.81;86.01;144947.53;5146573;27;20200;-51
2024/04/04 08:40:14;;;;;;;8.63;7.93;;;;;;;12.85;85.38;144958.44;5132648;27;20204;-51
2024/04/04 08:42:42;;;;;;;9.13;8.13;;;;;;;12.78;85.76;144940.25;5130157;27;20196;-50
2024/04/04 08:45:09;;;;;;;9.13;8.30;;;;;;;12.83;84.76;144953.59;5129925;27;20269;-52
2024/04/04 08:47:36;;;;;;;11.20;8.10;;;;;;;12.87;84.78;144963.25;5129922;27;20275;-51
2024/04/04 08:50:04;;;;;;;8.80;8.00;;;;;;;12.91;84.37;144971.75;5130060;27;20205;-51
2024/04/04 08:52:31;;;;;;;8.80;8.10;;;;;;;13.07;84.20;145010.59;5129889;27;20204;-51
2024/04/04 08:54:57;;;;;;;8.57;7.77;;;;;;;13.08;85.29;145013.06;5129845;27;20204;-52
2024/04/04 08:57:24;;;;;;;8.63;7.87;;;;;;;13.31;84.10;145067.59;5129649;27;20192;-51
2024/04/04 08:59:56;;;;;;;9.10;8.40;;;;;;;13.51;83.26;145117.34;5129538;27;20676;-51
2024/04/04 09:02:23;;;;;;;9.00;8.10;;;;;;;13.69;82.17;145159.78;5129728;27;20223;-50
2024/04/04 09:04:48;;;;;;;8.77;7.97;;;;;;;13.84;81.13;145194.97;5129942;27;20637;-52
2024/04/04 09:07:16;;;;;;;8.80;8.07;;;;;;;13.92;80.39;145214.38;5129660;27;20201;-52
2024/04/04 09:09:44;;;;;;;9.33;8.40;;;;;;;14.02;79.48;145239.84;5129617;27;20217;-51
2024/04/04 09:12:11;;;;;;;9.20;8.37;;;;;;;14.15;79.34;145271.38;5129486;27;20208;-52
2024/04/04 09:14:37;;;;;;;9.37;8.57;;;;;;;14.27;78.48;145299.31;5129546;27;20254;-51
2024/04/04 09:17:04;;;;;;;9.13;8.40;;;;;;;14.38;78.06;145324.84;5129555;27;20672;-52
2024/04/04 09:19:30;;;;;;;9.87;8.90;;;;;;;14.30;78.62;145306.59;5129888;27;20284;-50
2024/04/04 09:21:56;;;;;;;9.50;8.70;;;;;;;14.30;78.62;145305.38;5129321;27;20220;-50
2024/04/04 09:24:23;;;;;;;9.40;8.60;;;;;;;14.40;77.59;145329.72;5129424;27;20712;-51
2024/04/04 09:26:49;;;;;;;8.93;8.10;;;;;;;14.57;77.12;145370.97;5129366;27;20645;-51
2024/04/04 09:29:17;;;;;;;9.47;8.67;;;;;;;14.93;75.94;145457.16;5129518;27;20291;-52
2024/04/04 09:31:43;;;;;;;9.43;8.63;;;;;;;15.43;73.68;145579.88;5129510;27;20659;-50
2024/04/04 09:34:10;;;;;;;9.57;8.77;;;;;;;16.09;71.97;145737.88;5129243;27;20690;-52
2024/04/04 09:36:37;;;;;;;9.77;8.93;;;;;;;16.57;70.32;145853.38;5129536;27;20196;-51
2024/04/04 09:39:08;;;;;;;9.63;8.93;;;;;;;16.72;69.15;145888.63;5129453;27;20193;-50
2024/04/04 09:41:37;;;;;;;9.47;8.80;;;;;;;16.45;69.49;145825.34;5129325;27;20220;-52
2024/04/04 09:44:05;;;;;;;9.50;8.60;;;;;;;16.90;69.96;145932.41;5132802;27;20227;-51
2024/04/04 09:46:35;;;;;;;9.63;8.93;;;;;;;17.63;65.75;146108.81;5133396;27;20204;-51
2024/04/04 09:49:02;;;;;;;9.87;9.17;;;;;;;17.53;65.45;146084.44;5133379;27;20208;-51
2024/04/04 09:51:29;;;;;;;10.50;9.50;;;;;;;17.06;67.70;145971.31;5133322;27;20249;-51
2024/04/04 09:53:57;;;;;;;10.10;9.30;;;;;;;16.65;67.70;145872.81;5133110;27;20197;-51
2024/04/04 09:56:24;;;;;;;9.90;9.20;;;;;;;16.30;69.52;145787.69;5133170;27;20215;-51
2024/04/04 09:58:54;;;;;;;9.30;8.70;;;;;;;15.92;70.76;145696.53;5132940;27;20265;-51
2024/04/04 10:01:21;;;;;;;10.20;9.30;;;;;;;15.60;73.07;145618.78;5133379;27;20224;-52
2024/04/04 10:03:48;;;;;;;9.30;8.70;;;;;;;15.19;74.79;145520.34;5133055;27;20660;-50
2024/04/04 10:06:32;;;;;;;9.10;8.50;;;;;;;14.99;75.95;145471.75;5132972;27;20208;-51
2024/04/04 10:08:59;;;;;;;9.20;8.53;;;;;;;14.62;78.61;145383.09;5131708;27;20269;-51
2024/04/04 10:11:29;;;;;;;9.70;8.80;;;;;;;14.25;81.17;145295.69;5132827;27;20727;-52
2024/04/04 10:14:00;;;;;;;9.63;8.63;;;;;;;14.06;81.57;145248.34;5132901;27;20232;-51
2024/04/04 10:16:33;;;;;;;8.70;8.00;;;;;;;13.85;84.12;145197.41;5132895;27;20759;-51
2024/04/04 10:19:09;;;;;;;9.30;8.40;;;;;;;13.78;85.87;145180.41;5132810;27;20204;-52
2024/04/04 10:21:34;;;;;;;9.80;7.80;;;;;;;13.89;86.87;145207.09;5132966;27;20223;-51
2024/04/04 10:24:01;;;;;;;8.53;7.93;;;;;;;13.96;86.03;145224.09;5132573;27;20579;-51
2024/04/04 10:26:26;;;;;;;10.43;8.07;;;;;;;14.00;87.11;145235.00;5132816;27;20536;-51
2024/04/04 10:28:53;;;;;;;8.83;8.03;;;;;;;13.96;87.94;145225.28;5132853;27;20207;-50
2024/04/04 10:31:19;;;;;;;8.70;7.90;;;;;;;14.08;87.05;145253.19;5132721;27;20204;-51
2024/04/04 10:33:46;;;;;;;8.63;7.73;;;;;;;14.04;86.81;145244.69;5132556;27;20224;-51
2024/04/04 10:36:11;;;;;;;8.63;7.83;;;;;;;13.93;87.42;145216.81;5132207;27;20245;-51
2024/04/04 10:38:38;;;;;;;7.57;6.87;;;;;;;13.89;88.98;145207.09;5132612;27;20204;-52
2024/04/04 10:41:04;;;;;;;8.57;7.73;;;;;;;14.01;88.47;145236.22;5132190;27;20269;-51
2024/04/04 10:43:39;;;;;;;11.20;7.83;;;;;;;14.08;87.66;145253.19;5132283;27;20200;-52
2024/04/04 10:46:05;;;;;;;8.93;8.07;;;;;;;14.04;87.95;145243.50;5132469;27;20200;-51
2024/04/04 10:48:33;;;;;;;8.17;7.50;;;;;;;14.24;87.13;145292.03;5132232;27;20223;-51
2024/04/04 10:50:58;;;;;;;8.83;8.10;;;;;;;14.28;86.98;145301.75;5132165;27;20208;-54
2024/04/04 10:53:25;;;;;;;8.03;7.50;;;;;;;14.47;86.42;145347.94;5132094;27;20204;-52
2024/04/04 10:55:50;;;;;;;8.60;7.80;;;;;;;14.62;85.33;145383.09;5132136;27;20204;-52
2024/04/04 10:58:17;;;;;;;8.23;7.57;;;;;;;14.79;84.90;145425.63;5132115;27;20736;-53
2024/04/04 11:00:42;;;;;;;10.13;8.60;;;;;;;14.67;85.07;145395.28;5132079;27;20257;-53
2024/04/04 11:03:13;;;;;;;8.83;8.00;;;;;;;14.77;85.13;145420.75;5131835;27;20208;-52
2024/04/04 11:05:40;;;;;;;8.10;7.47;;;;;;;15.08;84.99;145494.81;5131955;27;20216;-51
2024/04/04 11:08:08;;;;;;;8.70;8.10;;;;;;;15.38;83.44;145567.69;5131614;27;20212;-55
2024/04/04 11:10:34;;;;;;;11.10;8.00;;;;;;;15.91;81.74;145695.31;5131742;27;20298;-52
2024/04/04 11:13:00;;;;;;;8.83;8.20;;;;;;;16.20;79.18;145763.38;5131680;27;20231;-54
2024/04/04 11:15:26;;;;;;;9.17;7.70;;;;;;;16.20;78.06;145764.56;5131480;27;20236;-54
2024/04/04 11:17:52;;;;;;;9.23;8.27;;;;;;;16.16;76.22;145753.63;5131449;27;20241;-52